sensor_id;sensor_type;location;lat;lon;timestamp;pressure;altitude;pressure_sealevel;temperature;humidity
71573;BME280;59408;51.032;9.410;2023-06-22T00:01:29;99286.84;;;15.96;100.00
71573;BME280;59408;51.032;9.410;2023-06-22T00:03:55;99281.31;;;15.93;100.00
71573;BME280;59408;51.032;9.410;2023-06-22T00:06:22;99282.81;;;15.90;100.00
71573;BME280;59408;51.032;9.410;2023-06-22T00:08:49;99274.94;;;15.89;100.00
71573;BME280;59408;51.032;9.410;2023-06-22T00:11:15;99274.50;;;15.87;100.00
71573;BME280;59408;51.032;9.410;2023-06-22T00:13:43;99261.88;;;15.82;100.00
71573;BME280;59408;51.032;9.410;2023-06-22T00:16:10;99263.03;;;15.81;100.00
71573;BME280;59408;51.032;9.410;2023-06-22T00:18:36;99258.25;;;15.78;100.00
71573;BME280;59408;51.032;9.410;2023-06-22T00:21:03;99258.56;;;15.73;100.00
71573;BME280;59408;51.032;9.410;2023-06-22T00:23:29;99269.56;;;15.73;100.00
71573;BME280;59408;51.032;9.410;2023-06-22T00:25:56;99258.94;;;15.71;100.00
71573;BME280;59408;51.032;9.410;2023-06-22T00:28:23;99260.03;;;15.67;100.00
71573;BME280;59408;51.032;9.410;2023-06-22T00:30:51;99255.69;;;15.66;100.00
71573;BME280;59408;51.032;9.410;2023-06-22T00:33:17;99250.38;;;15.57;100.00
71573;BME280;59408;51.032;9.410;2023-06-22T00:35:44;99248.88;;;15.60;100.00
71573;BME280;59408;51.032;9.410;2023-06-22T00:38:11;99240.63;;;15.60;100.00
71573;BME280;59408;51.032;9.410;2023-06-22T00:40:38;99237.44;;;15.58;100.00
71573;BME280;59408;51.032;9.410;2023-06-22T00:43:04;99231.16;;;15.57;100.00
71573;BME280;59408;51.032;9.410;2023-06-22T00:45:31;99227.25;;;15.58;100.00
71573;BME280;59408;51.032;9.410;2023-06-22T00:48:00;99212.28;;;15.56;100.00
71573;BME280;59408;51.032;9.410;2023-06-22T00:50:27;99202.38;;;15.51;100.00
71573;BME280;59408;51.032;9.410;2023-06-22T00:52:57;99187.78;;;15.47;100.00
71573;BME280;59408;51.032;9.410;2023-06-22T00:55:25;99183.44;;;15.46;100.00
71573;BME280;59408;51.032;9.410;2023-06-22T00:57:52;99183.81;;;15.44;100.00
71573;BME280;59408;51.032;9.410;2023-06-22T01:00:20;99167.31;;;15.44;100.00
71573;BME280;59408;51.032;9.410;2023-06-22T01:02:47;99156.25;;;15.41;100.00
71573;BME280;59408;51.032;9.410;2023-06-22T01:05:17;99148.44;;;15.43;100.00
71573;BME280;59408;51.032;9.410;2023-06-22T01:07:52;99139.41;;;15.42;100.00
71573;BME280;59408;51.032;9.410;2023-06-22T01:10:25;99133.97;;;15.46;100.00
71573;BME280;59408;51.032;9.410;2023-06-22T01:13:00;99134.78;;;15.46;100.00
71573;BME280;59408;51.032;9.410;2023-06-22T01:15:30;99128.09;;;15.48;100.00
71573;BME280;59408;51.032;9.410;2023-06-22T01:17:59;99118.31;;;15.50;100.00
71573;BME280;59408;51.032;9.410;2023-06-22T01:20:30;99126.19;;;15.52;100.00
71573;BME280;59408;51.032;9.410;2023-06-22T01:23:07;99138.34;;;15.51;100.00
71573;BME280;59408;51.032;9.410;2023-06-22T01:25:43;99160.34;;;15.51;100.00
71573;BME280;59408;51.032;9.410;2023-06-22T01:28:20;99168.94;;;15.49;100.00
71573;BME280;59408;51.032;9.410;2023-06-22T01:30:51;99172.94;;;15.52;100.00
71573;BME280;59408;51.032;9.410;2023-06-22T01:33:18;99194.69;;;15.60;100.00
71573;BME280;59408;51.032;9.410;2023-06-22T01:35:45;99200.75;;;15.69;100.00
71573;BME280;59408;51.032;9.410;2023-06-22T01:38:12;99209.97;;;15.80;100.00
71573;BME280;59408;51.032;9.410;2023-06-22T01:40:40;99214.78;;;15.87;100.00
71573;BME280;59408;51.032;9.410;2023-06-22T01:43:07;99220.34;;;15.91;100.00
71573;BME280;59408;51.032;9.410;2023-06-22T01:45:33;99223.56;;;15.96;100.00
71573;BME280;59408;51.032;9.410;2023-06-22T01:48:02;99227.97;;;16.01;100.00
71573;BME280;59408;51.032;9.410;2023-06-22T01:50:28;99233.88;;;16.03;100.00
71573;BME280;59408;51.032;9.410;2023-06-22T01:52:55;99240.16;;;16.03;100.00
71573;BME280;59408;51.032;9.410;2023-06-22T01:55:22;99235.84;;;16.02;100.00
71573;BME280;59408;51.032;9.410;2023-06-22T01:57:49;99247.22;;;16.01;100.00
71573;BME280;59408;51.032;9.410;2023-06-22T02:00:19;99250.34;;;15.99;100.00
71573;BME280;59408;51.032;9.410;2023-06-22T02:02:52;99261.28;;;15.96;100.00
71573;BME280;59408;51.032;9.410;2023-06-22T02:05:23;99260.09;;;15.93;100.00
71573;BME280;59408;51.032;9.410;2023-06-22T02:07:57;99265.50;;;15.90;100.00
71573;BME280;59408;51.032;9.410;2023-06-22T02:10:27;99282.38;;;15.88;100.00
71573;BME280;59408;51.032;9.410;2023-06-22T02:12:57;99281.94;;;15.86;100.00
71573;BME280;59408;51.032;9.410;2023-06-22T02:15:25;99292.56;;;15.84;100.00
71573;BME280;59408;51.032;9.410;2023-06-22T02:17:52;99296.06;;;15.84;100.00
71573;BME280;59408;51.032;9.410;2023-06-22T02:20:19;99292.97;;;15.86;100.00
71573;BME280;59408;51.032;9.410;2023-06-22T02:22:46;99296.88;;;15.85;100.00
71573;BME280;59408;51.032;9.410;2023-06-22T02:25:13;99296.56;;;15.90;100.00
71573;BME280;59408;51.032;9.410;2023-06-22T02:27:41;99307.22;;;15.92;100.00
71573;BME280;59408;51.032;9.410;2023-06-22T02:30:08;99304.47;;;15.92;100.00
71573;BME280;59408;51.032;9.410;2023-06-22T02:32:34;99306.53;;;15.98;100.00
71573;BME280;59408;51.032;9.410;2023-06-22T02:35:02;99299.88;;;15.99;100.00
71573;BME280;59408;51.032;9.410;2023-06-22T02:37:28;99291.63;;;15.99;100.00
71573;BME280;59408;51.032;9.410;2023-06-22T02:39:56;99291.66;;;16.03;100.00
71573;BME280;59408;51.032;9.410;2023-06-22T02:42:23;99286.94;;;16.03;100.00
71573;BME280;59408;51.032;9.410;2023-06-22T02:44:50;99280.72;;;16.06;100.00
71573;BME280;59408;51.032;9.410;2023-06-22T02:47:16;99271.66;;;16.06;100.00
71573;BME280;59408;51.032;9.410;2023-06-22T02:49:43;99268.13;;;16.05;100.00
71573;BME280;59408;51.032;9.410;2023-06-22T02:52:10;99253.19;;;16.06;100.00
71573;BME280;59408;51.032;9.410;2023-06-22T02:54:36;99244.94;;;16.06;100.00
71573;BME280;59408;51.032;9.410;2023-06-22T02:57:05;99249.22;;;16.04;100.00
71573;BME280;59408;51.032;9.410;2023-06-22T02:59:31;99241.03;;;16.07;100.00
71573;BME280;59408;51.032;9.410;2023-06-22T03:02:00;99235.16;;;16.09;100.00
71573;BME280;59408;51.032;9.410;2023-06-22T03:04:26;99234.78;;;16.10;100.00
71573;BME280;59408;51.032;9.410;2023-06-22T03:06:53;99219.88;;;16.11;100.00
71573;BME280;59408;51.032;9.410;2023-06-22T03:09:19;99219.09;;;16.11;100.00
71573;BME280;59408;51.032;9.410;2023-06-22T03:11:46;99208.44;;;16.09;100.00
71573;BME280;59408;51.032;9.410;2023-06-22T03:14:14;99210.41;;;16.09;100.00
71573;BME280;59408;51.032;9.410;2023-06-22T03:16:41;99200.19;;;16.09;100.00
71573;BME280;59408;51.032;9.410;2023-06-22T03:19:07;99201.34;;;16.08;100.00
71573;BME280;59408;51.032;9.410;2023-06-22T03:21:34;99202.06;;;16.05;100.00
71573;BME280;59408;51.032;9.410;2023-06-22T03:24:01;99208.75;;;16.04;100.00
71573;BME280;59408;51.032;9.410;2023-06-22T03:26:27;99200.13;;;16.06;100.00
71573;BME280;59408;51.032;9.410;2023-06-22T03:28:54;99201.72;;;16.07;100.00
71573;BME280;59408;51.032;9.410;2023-06-22T03:31:23;99201.28;;;16.05;100.00
71573;BME280;59408;51.032;9.410;2023-06-22T03:34:07;99207.56;;;16.05;100.00
71573;BME280;59408;51.032;9.410;2023-06-22T03:36:33;99206.06;;;16.08;100.00
71573;BME280;59408;51.032;9.410;2023-06-22T03:39:00;99204.88;;;16.09;100.00
71573;BME280;59408;51.032;9.410;2023-06-22T03:41:26;99197.84;;;16.11;100.00
71573;BME280;59408;51.032;9.410;2023-06-22T03:43:53;99191.56;;;16.11;100.00
71573;BME280;59408;51.032;9.410;2023-06-22T03:46:19;99190.00;;;16.13;100.00
71573;BME280;59408;51.032;9.410;2023-06-22T03:48:48;99190.44;;;16.15;100.00
71573;BME280;59408;51.032;9.410;2023-06-22T03:51:14;99191.22;;;16.16;100.00
71573;BME280;59408;51.032;9.410;2023-06-22T03:53:41;99197.94;;;16.18;100.00
71573;BME280;59408;51.032;9.410;2023-06-22T03:56:07;99194.44;;;16.21;100.00
71573;BME280;59408;51.032;9.410;2023-06-22T03:58:34;99195.28;;;16.26;100.00
71573;BME280;59408;51.032;9.410;2023-06-22T04:01:00;99189.41;;;16.27;100.00
71573;BME280;59408;51.032;9.410;2023-06-22T04:03:27;99202.41;;;16.30;100.00
71573;BME280;59408;51.032;9.410;2023-06-22T04:05:55;99196.97;;;16.34;100.00
71573;BME280;59408;51.032;9.410;2023-06-22T04:08:22;99195.06;;;16.38;100.00
71573;BME280;59408;51.032;9.410;2023-06-22T04:10:48;99185.25;;;16.40;100.00
71573;BME280;59408;51.032;9.410;2023-06-22T04:13:15;99187.63;;;16.42;100.00
71573;BME280;59408;51.032;9.410;2023-06-22T04:15:41;99187.25;;;16.43;100.00
71573;BME280;59408;51.032;9.410;2023-06-22T04:18:08;99183.00;;;16.49;100.00
71573;BME280;59408;51.032;9.410;2023-06-22T04:20:35;99186.56;;;16.50;100.00
71573;BME280;59408;51.032;9.410;2023-06-22T04:23:04;99179.94;;;16.54;100.00
71573;BME280;59408;51.032;9.410;2023-06-22T04:25:30;99181.53;;;16.59;100.00
71573;BME280;59408;51.032;9.410;2023-06-22T04:27:57;99180.47;;;16.64;100.00
71573;BME280;59408;51.032;9.410;2023-06-22T04:30:24;99193.06;;;16.65;100.00
71573;BME280;59408;51.032;9.410;2023-06-22T04:32:51;99188.72;;;16.64;100.00
71573;BME280;59408;51.032;9.410;2023-06-22T04:35:17;99195.06;;;16.68;100.00
71573;BME280;59408;51.032;9.410;2023-06-22T04:37:44;99193.94;;;16.72;100.00
71573;BME280;59408;51.032;9.410;2023-06-22T04:40:12;99201.06;;;16.77;100.00
71573;BME280;59408;51.032;9.410;2023-06-22T04:42:39;99209.44;;;16.84;100.00
71573;BME280;59408;51.032;9.410;2023-06-22T04:45:06;99209.47;;;16.87;100.00
71573;BME280;59408;51.032;9.410;2023-06-22T04:47:33;99201.25;;;16.91;100.00
71573;BME280;59408;51.032;9.410;2023-06-22T04:50:04;99196.53;;;16.91;100.00
71573;BME280;59408;51.032;9.410;2023-06-22T04:52:34;99204.03;;;16.94;100.00
71573;BME280;59408;51.032;9.410;2023-06-22T04:55:01;99195.44;;;17.03;100.00
71573;BME280;59408;51.032;9.410;2023-06-22T04:57:29;99193.59;;;17.11;100.00
71573;BME280;59408;51.032;9.410;2023-06-22T04:59:55;99197.19;;;17.18;100.00
71573;BME280;59408;51.032;9.410;2023-06-22T05:02:22;99198.88;;;17.30;100.00
71573;BME280;59408;51.032;9.410;2023-06-22T05:04:49;99203.69;;;17.40;100.00
71573;BME280;59408;51.032;9.410;2023-06-22T05:07:16;99199.44;;;17.50;100.00
71573;BME280;59408;51.032;9.410;2023-06-22T05:09:42;99199.16;;;17.58;100.00
71573;BME280;59408;51.032;9.410;2023-06-22T05:12:09;99204.75;;;17.69;100.00
71573;BME280;59408;51.032;9.410;2023-06-22T05:14:38;99187.88;;;17.74;100.00
71573;BME280;59408;51.032;9.410;2023-06-22T05:17:05;99198.97;;;17.85;100.00
71573;BME280;59408;51.032;9.410;2023-06-22T05:19:31;99201.00;;;17.95;100.00
71573;BME280;59408;51.032;9.410;2023-06-22T05:21:58;99198.75;;;18.08;100.00
71573;BME280;59408;51.032;9.410;2023-06-22T05:24:24;99192.09;;;18.19;100.00
71573;BME280;59408;51.032;9.410;2023-06-22T05:26:51;99198.81;;;18.22;98.33
71573;BME280;59408;51.032;9.410;2023-06-22T05:29:18;99192.19;;;18.30;99.41
71573;BME280;59408;51.032;9.410;2023-06-22T05:31:46;99186.72;;;18.44;100.00
71573;BME280;59408;51.032;9.410;2023-06-22T05:34:12;99194.28;;;18.54;97.92
71573;BME280;59408;51.032;9.410;2023-06-22T05:36:39;99184.84;;;18.62;97.84
71573;BME280;59408;51.032;9.410;2023-06-22T05:39:11;99193.16;;;18.69;97.71
71573;BME280;59408;51.032;9.410;2023-06-22T05:41:37;99187.25;;;18.78;97.08
71573;BME280;59408;51.032;9.410;2023-06-22T05:44:04;99180.97;;;18.81;96.93
71573;BME280;59408;51.032;9.410;2023-06-22T05:46:31;99187.69;;;18.84;96.67
71573;BME280;59408;51.032;9.410;2023-06-22T05:48:59;99176.25;;;18.92;96.10
71573;BME280;59408;51.032;9.410;2023-06-22T05:51:25;99184.53;;;18.96;96.27
71573;BME280;59408;51.032;9.410;2023-06-22T05:53:52;99179.84;;;19.14;95.00
71573;BME280;59408;51.032;9.410;2023-06-22T05:56:19;99180.63;;;19.22;94.17
71573;BME280;59408;51.032;9.410;2023-06-22T05:58:47;99188.94;;;19.11;92.72
71573;BME280;59408;51.032;9.410;2023-06-22T06:01:13;99190.94;;;19.28;92.02
71573;BME280;59408;51.032;9.410;2023-06-22T06:03:40;99192.91;;;19.31;93.09
71573;BME280;59408;51.032;9.410;2023-06-22T06:06:08;99184.59;;;19.24;93.36
71573;BME280;59408;51.032;9.410;2023-06-22T06:08:35;99187.81;;;19.44;92.54
71573;BME280;59408;51.032;9.410;2023-06-22T06:11:01;99190.19;;;19.42;90.56
71573;BME280;59408;51.032;9.410;2023-06-22T06:13:28;99204.44;;;19.47;89.97
71573;BME280;59408;51.032;9.410;2023-06-22T06:15:57;99195.34;;;19.47;90.72
71573;BME280;59408;51.032;9.410;2023-06-22T06:18:24;99195.72;;;19.52;91.90
71573;BME280;59408;51.032;9.410;2023-06-22T06:20:51;99195.34;;;19.58;90.39
71573;BME280;59408;51.032;9.410;2023-06-22T06:23:19;99203.63;;;19.54;90.41
71573;BME280;59408;51.032;9.410;2023-06-22T06:25:45;99200.47;;;19.56;92.90
71573;BME280;59408;51.032;9.410;2023-06-22T06:28:12;99199.69;;;19.66;91.93
71573;BME280;59408;51.032;9.410;2023-06-22T06:30:38;99196.53;;;19.71;91.73
71573;BME280;59408;51.032;9.410;2023-06-22T06:33:05;99195.31;;;19.79;90.48
71573;BME280;59408;51.032;9.410;2023-06-22T06:35:32;99185.03;;;19.97;88.43
71573;BME280;59408;51.032;9.410;2023-06-22T06:37:58;99185.00;;;20.11;87.47
71573;BME280;59408;51.032;9.410;2023-06-22T06:40:26;99191.31;;;20.22;86.02
71573;BME280;59408;51.032;9.410;2023-06-22T06:42:54;99186.91;;;20.46;86.77
71573;BME280;59408;51.032;9.410;2023-06-22T06:45:22;99185.22;;;20.70;85.74
71573;BME280;59408;51.032;9.410;2023-06-22T06:47:49;99172.06;;;20.92;84.72
71573;BME280;59408;51.032;9.410;2023-06-22T06:50:17;99179.19;;;20.93;82.26
71573;BME280;59408;51.032;9.410;2023-06-22T06:52:43;99177.47;;;21.17;82.20
71573;BME280;59408;51.032;9.410;2023-06-22T06:55:13;99172.56;;;21.38;81.32
71573;BME280;59408;51.032;9.410;2023-06-22T06:57:42;99181.56;;;21.50;79.97
71573;BME280;59408;51.032;9.410;2023-06-22T07:00:10;99168.78;;;21.66;78.79
71573;BME280;59408;51.032;9.410;2023-06-22T07:02:41;99157.44;;;21.91;79.18
71573;BME280;59408;51.032;9.410;2023-06-22T07:05:08;99164.78;;;22.12;79.03
71573;BME280;59408;51.032;9.410;2023-06-22T07:07:35;99164.31;;;22.17;78.12
71573;BME280;59408;51.032;9.410;2023-06-22T07:10:04;99167.78;;;22.28;75.55
71573;BME280;59408;51.032;9.410;2023-06-22T07:12:32;99168.00;;;22.41;76.88
71573;BME280;59408;51.032;9.410;2023-06-22T07:15:06;99165.03;;;22.59;76.24
71573;BME280;59408;51.032;9.410;2023-06-22T07:17:33;99172.13;;;22.67;75.04
71573;BME280;59408;51.032;9.410;2023-06-22T07:20:00;99167.38;;;22.94;75.73
71573;BME280;59408;51.032;9.410;2023-06-22T07:22:27;99168.66;;;23.13;73.69
71573;BME280;59408;51.032;9.410;2023-06-22T07:24:54;99161.03;;;23.20;72.52
71573;BME280;59408;51.032;9.410;2023-06-22T07:27:20;99162.78;;;23.38;73.81
71573;BME280;59408;51.032;9.410;2023-06-22T07:29:47;99160.53;;;23.52;71.56
71573;BME280;59408;51.032;9.410;2023-06-22T07:32:15;99165.75;;;23.74;72.96
71573;BME280;59408;51.032;9.410;2023-06-22T07:34:42;99163.72;;;24.01;72.42
71573;BME280;59408;51.032;9.410;2023-06-22T07:37:09;99156.50;;;24.23;70.56
71573;BME280;59408;51.032;9.410;2023-06-22T07:39:38;99156.88;;;24.25;69.05
71573;BME280;59408;51.032;9.410;2023-06-22T07:42:05;99159.50;;;24.52;69.04
71573;BME280;59408;51.032;9.410;2023-06-22T07:44:32;99154.66;;;24.56;67.42
71573;BME280;59408;51.032;9.410;2023-06-22T07:46:58;99144.72;;;24.55;68.04
71573;BME280;59408;51.032;9.410;2023-06-22T07:49:27;99141.50;;;24.77;67.90
71573;BME280;59408;51.032;9.410;2023-06-22T07:51:54;99142.50;;;25.02;69.48
71573;BME280;59408;51.032;9.410;2023-06-22T07:54:20;99143.41;;;25.32;69.32
71573;BME280;59408;51.032;9.410;2023-06-22T07:56:47;99135.56;;;25.59;66.28
71573;BME280;59408;51.032;9.410;2023-06-22T07:59:14;99133.03;;;25.65;65.26
71573;BME280;59408;51.032;9.410;2023-06-22T08:01:40;99126.13;;;25.86;63.95
71573;BME280;59408;51.032;9.410;2023-06-22T08:04:07;99139.00;;;26.12;64.26
71573;BME280;59408;51.032;9.410;2023-06-22T08:06:35;99131.16;;;25.91;64.64
71573;BME280;59408;51.032;9.410;2023-06-22T08:09:02;99134.19;;;26.12;63.63
71573;BME280;59408;51.032;9.410;2023-06-22T08:11:28;99124.00;;;25.90;64.90
71573;BME280;59408;51.032;9.410;2023-06-22T08:13:55;99134.16;;;26.41;65.71
71573;BME280;59408;51.032;9.410;2023-06-22T08:16:22;99123.88;;;26.51;61.81
71573;BME280;59408;51.032;9.410;2023-06-22T08:18:48;99122.28;;;26.79;63.15
71573;BME280;59408;51.032;9.410;2023-06-22T08:21:15;99131.16;;;27.03;60.52
71573;BME280;59408;51.032;9.410;2023-06-22T08:23:43;99111.50;;;27.66;59.43
71573;BME280;59408;51.032;9.410;2023-06-22T08:26:10;99119.09;;;27.78;58.50
71573;BME280;59408;51.032;9.410;2023-06-22T08:28:36;99102.69;;;27.89;60.21
71573;BME280;59408;51.032;9.410;2023-06-22T08:31:03;99098.13;;;28.04;57.93
71573;BME280;59408;51.032;9.410;2023-06-22T08:33:29;99110.34;;;28.11;58.13
71573;BME280;59408;51.032;9.410;2023-06-22T08:35:58;99108.25;;;27.67;59.25
71573;BME280;59408;51.032;9.410;2023-06-22T08:38:25;99108.28;;;27.42;60.16
71573;BME280;59408;51.032;9.410;2023-06-22T08:40:53;99096.56;;;27.22;58.83
71573;BME280;59408;51.032;9.410;2023-06-22T08:43:21;99108.16;;;27.58;59.17
71573;BME280;59408;51.032;9.410;2023-06-22T08:45:47;99098.63;;;27.56;58.77
71573;BME280;59408;51.032;9.410;2023-06-22T08:48:14;99084.53;;;27.68;58.52
71573;BME280;59408;51.032;9.410;2023-06-22T08:50:41;99087.31;;;27.94;59.19
71573;BME280;59408;51.032;9.410;2023-06-22T08:53:08;99087.38;;;28.47;57.61
71573;BME280;59408;51.032;9.410;2023-06-22T08:55:34;99080.97;;;28.68;56.17
71573;BME280;59408;51.032;9.410;2023-06-22T08:58:02;99079.63;;;28.91;57.89
71573;BME280;59408;51.032;9.410;2023-06-22T09:00:29;99080.59;;;29.37;55.89
71573;BME280;59408;51.032;9.410;2023-06-22T09:02:56;99079.63;;;29.22;55.13
71573;BME280;59408;51.032;9.410;2023-06-22T09:05:22;99086.50;;;29.30;55.80
71573;BME280;59408;51.032;9.410;2023-06-22T09:07:49;99082.22;;;29.65;54.13
71573;BME280;59408;51.032;9.410;2023-06-22T09:10:18;99078.94;;;29.94;54.32
71573;BME280;59408;51.032;9.410;2023-06-22T09:12:45;99080.34;;;29.99;52.31
71573;BME280;59408;51.032;9.410;2023-06-22T09:15:13;99074.34;;;30.42;52.31
71573;BME280;59408;51.032;9.410;2023-06-22T09:17:54;99071.59;;;30.15;51.41
71573;BME280;59408;51.032;9.410;2023-06-22T09:20:21;99071.28;;;30.22;53.26
71573;BME280;59408;51.032;9.410;2023-06-22T09:22:48;99066.03;;;30.57;50.91
71573;BME280;59408;51.032;9.410;2023-06-22T09:25:14;99061.19;;;30.67;50.62
71573;BME280;59408;51.032;9.410;2023-06-22T09:27:41;99063.63;;;30.83;50.01
71573;BME280;59408;51.032;9.410;2023-06-22T09:30:08;99045.97;;;30.73;50.76
71573;BME280;59408;51.032;9.410;2023-06-22T09:32:36;99051.69;;;30.88;50.10
71573;BME280;59408;51.032;9.410;2023-06-22T09:35:05;99041.13;;;30.74;50.61
71573;BME280;59408;51.032;9.410;2023-06-22T09:37:31;99037.56;;;31.30;50.51
71573;BME280;59408;51.032;9.410;2023-06-22T09:39:58;99027.56;;;31.67;48.74
71573;BME280;59408;51.032;9.410;2023-06-22T09:42:25;99027.25;;;31.65;47.73
71573;BME280;59408;51.032;9.410;2023-06-22T09:44:51;99033.16;;;31.77;45.87
71573;BME280;59408;51.032;9.410;2023-06-22T09:47:18;99037.03;;;31.79;47.86
71573;BME280;59408;51.032;9.410;2023-06-22T09:49:46;99035.38;;;31.87;47.03
71573;BME280;59408;51.032;9.410;2023-06-22T09:52:14;99023.91;;;31.91;47.95
71573;BME280;59408;51.032;9.410;2023-06-22T09:54:41;99018.63;;;32.22;47.19
71573;BME280;59408;51.032;9.410;2023-06-22T09:57:07;99010.31;;;32.48;46.02
71573;BME280;59408;51.032;9.410;2023-06-22T09:59:34;99016.47;;;32.47;45.98
71573;BME280;59408;51.032;9.410;2023-06-22T10:02:03;99020.72;;;32.86;46.02
71573;BME280;59408;51.032;9.410;2023-06-22T10:04:29;99018.75;;;33.12;45.34
71573;BME280;59408;51.032;9.410;2023-06-22T10:06:58;99024.28;;;33.22;44.10
71573;BME280;59408;51.032;9.410;2023-06-22T10:09:25;99009.41;;;33.06;43.96
71573;BME280;59408;51.032;9.410;2023-06-22T10:11:51;99005.34;;;33.28;41.86
71573;BME280;59408;51.032;9.410;2023-06-22T10:14:18;98996.69;;;33.16;43.27
71573;BME280;59408;51.032;9.410;2023-06-22T10:16:45;98990.19;;;33.51;41.03
71573;BME280;59408;51.032;9.410;2023-06-22T10:19:12;98993.03;;;33.51;42.67
71573;BME280;59408;51.032;9.410;2023-06-22T10:21:38;98991.50;;;33.50;43.73
71573;BME280;59408;51.032;9.410;2023-06-22T10:24:06;98997.84;;;33.65;41.88
71573;BME280;59408;51.032;9.410;2023-06-22T10:26:33;98987.72;;;33.79;42.00
71573;BME280;59408;51.032;9.410;2023-06-22T10:29:00;98978.56;;;33.89;43.00
71573;BME280;59408;51.032;9.410;2023-06-22T10:31:42;98983.34;;;34.04;42.37
71573;BME280;59408;51.032;9.410;2023-06-22T10:34:08;98983.59;;;34.06;42.42
71573;BME280;59408;51.032;9.410;2023-06-22T10:36:35;98979.47;;;33.75;41.77
71573;BME280;59408;51.032;9.410;2023-06-22T10:39:02;98963.34;;;34.13;41.09
71573;BME280;59408;51.032;9.410;2023-06-22T10:41:30;98961.66;;;34.58;41.96
71573;BME280;59408;51.032;9.410;2023-06-22T10:43:56;98950.75;;;34.45;40.82
71573;BME280;59408;51.032;9.410;2023-06-22T10:46:24;98951.75;;;34.79;39.86
71573;BME280;59408;51.032;9.410;2023-06-22T10:48:50;98950.75;;;34.88;40.98
71573;BME280;59408;51.032;9.410;2023-06-22T10:51:17;98953.47;;;34.29;40.37
71573;BME280;59408;51.032;9.410;2023-06-22T10:53:44;98953.16;;;34.58;40.11
71573;BME280;59408;51.032;9.410;2023-06-22T10:56:10;98950.03;;;34.50;39.46
71573;BME280;59408;51.032;9.410;2023-06-22T10:58:38;98942.53;;;34.47;41.76
71573;BME280;59408;51.032;9.410;2023-06-22T11:01:05;98939.69;;;34.84;38.89
71573;BME280;59408;51.032;9.410;2023-06-22T11:03:32;98944.84;;;34.17;39.52
71573;BME280;59408;51.032;9.410;2023-06-22T11:05:59;98938.09;;;33.17;41.36
71573;BME280;59408;51.032;9.410;2023-06-22T11:08:25;98938.38;;;33.19;42.64
71573;BME280;59408;51.032;9.410;2023-06-22T11:10:52;98940.91;;;34.09;40.70
71573;BME280;59408;51.032;9.410;2023-06-22T11:13:18;98924.09;;;33.08;41.45
71573;BME280;59408;51.032;9.410;2023-06-22T11:15:46;98918.03;;;33.15;42.76
71573;BME280;59408;51.032;9.410;2023-06-22T11:18:13;98910.56;;;33.58;41.92
71573;BME280;59408;51.032;9.410;2023-06-22T11:20:39;98903.94;;;33.87;41.25
71573;BME280;59408;51.032;9.410;2023-06-22T11:23:06;98903.03;;;33.49;42.91
71573;BME280;59408;51.032;9.410;2023-06-22T11:25:33;98902.09;;;33.58;42.05
71573;BME280;59408;51.032;9.410;2023-06-22T11:28:01;98887.69;;;34.50;41.03
71573;BME280;59408;51.032;9.410;2023-06-22T11:30:28;98889.00;;;34.60;39.03
71573;BME280;59408;51.032;9.410;2023-06-22T11:32:58;98872.38;;;34.00;39.60
71573;BME280;59408;51.032;9.410;2023-06-22T11:35:25;98867.22;;;33.72;40.96
71573;BME280;59408;51.032;9.410;2023-06-22T11:37:52;98870.72;;;34.19;41.17
71573;BME280;59408;51.032;9.410;2023-06-22T11:40:19;98854.94;;;34.92;40.58
71573;BME280;59408;51.032;9.410;2023-06-22T11:42:46;98859.16;;;34.59;39.25
71573;BME280;59408;51.032;9.410;2023-06-22T11:45:12;98849.00;;;34.42;38.68
71573;BME280;59408;51.032;9.410;2023-06-22T11:47:39;98845.31;;;33.93;39.10
71573;BME280;59408;51.032;9.410;2023-06-22T11:50:08;98840.25;;;34.08;41.96
71573;BME280;59408;51.032;9.410;2023-06-22T11:52:35;98829.69;;;34.40;40.50
71573;BME280;59408;51.032;9.410;2023-06-22T11:55:01;98824.97;;;34.74;39.18
71573;BME280;59408;51.032;9.410;2023-06-22T11:57:28;98820.50;;;34.19;39.48
71573;BME280;59408;51.032;9.410;2023-06-22T11:59:55;98823.53;;;34.05;41.34
71573;BME280;59408;51.032;9.410;2023-06-22T12:02:22;98807.19;;;34.25;40.90
71573;BME280;59408;51.032;9.410;2023-06-22T12:04:49;98795.91;;;34.37;38.42
71573;BME280;59408;51.032;9.410;2023-06-22T12:07:17;98803.91;;;33.38;40.36
71573;BME280;59408;51.032;9.410;2023-06-22T12:09:43;98809.75;;;32.83;41.63
71573;BME280;59408;51.032;9.410;2023-06-22T12:12:10;98810.66;;;32.95;42.36
71573;BME280;59408;51.032;9.410;2023-06-22T12:14:36;98810.66;;;34.09;40.90
71573;BME280;59408;51.032;9.410;2023-06-22T12:17:03;98788.66;;;34.89;40.46
71573;BME280;59408;51.032;9.410;2023-06-22T12:19:30;98792.44;;;34.70;38.89
71573;BME280;59408;51.032;9.410;2023-06-22T12:21:57;98793.94;;;34.11;40.11
71573;BME280;59408;51.032;9.410;2023-06-22T12:24:25;98785.06;;;34.30;39.65
71573;BME280;59408;51.032;9.410;2023-06-22T12:26:51;98777.28;;;34.73;40.59
71573;BME280;59408;51.032;9.410;2023-06-22T12:29:21;98787.41;;;34.96;38.53
71573;BME280;59408;51.032;9.410;2023-06-22T12:31:51;98782.06;;;35.26;39.24
71573;BME280;59408;51.032;9.410;2023-06-22T12:34:20;98776.56;;;34.89;39.05
71573;BME280;59408;51.032;9.410;2023-06-22T12:36:47;98762.03;;;34.16;40.29
71573;BME280;59408;51.032;9.410;2023-06-22T12:39:14;98763.31;;;34.63;39.39
71573;BME280;59408;51.032;9.410;2023-06-22T12:41:42;98769.19;;;34.49;39.72
71573;BME280;59408;51.032;9.410;2023-06-22T12:44:08;98767.91;;;34.02;41.72
71573;BME280;59408;51.032;9.410;2023-06-22T12:46:35;98765.50;;;33.89;41.88
71573;BME280;59408;51.032;9.410;2023-06-22T12:49:02;98758.44;;;34.16;41.21
71573;BME280;59408;51.032;9.410;2023-06-22T12:51:28;98751.25;;;34.69;39.90
71573;BME280;59408;51.032;9.410;2023-06-22T12:53:55;98749.16;;;34.63;40.45
71573;BME280;59408;51.032;9.410;2023-06-22T12:56:24;98752.81;;;34.75;40.27